createdAt,value
2022-11-19T00:00:49.725Z,9.47
2022-11-19T00:03:18.153Z,7.77
2022-11-19T00:05:46.294Z,9.10
2022-11-19T00:08:16.122Z,3.33
2022-11-19T00:10:42.937Z,8.40
2022-11-19T00:13:09.704Z,5.03
2022-11-19T00:15:36.690Z,5.73
2022-11-19T00:18:07.149Z,11.53
2022-11-19T00:20:34.374Z,5.57
2022-11-19T00:23:01.378Z,4.70
2022-11-19T00:25:29.532Z,6.47
2022-11-19T00:27:56.965Z,6.37
2022-11-19T00:30:46.325Z,8.57
2022-11-19T00:33:10.645Z,7.10
2022-11-19T00:35:37.425Z,10.20
2022-11-19T00:38:04.222Z,5.10
2022-11-19T00:40:31.029Z,5.43
2022-11-19T00:43:16.336Z,6.03
2022-11-19T00:45:44.609Z,6.93
2022-11-19T00:48:11.557Z,6.73
2022-11-19T00:50:38.317Z,4.23
2022-11-19T00:53:05.188Z,9.43
2022-11-19T00:55:32.044Z,5.57
2022-11-19T00:57:58.812Z,4.90
2022-11-19T01:00:26.099Z,3.33
2022-11-19T01:02:52.906Z,2.63
2022-11-19T01:05:19.731Z,5.47
2022-11-19T01:07:46.953Z,6.73
2022-11-19T01:10:13.760Z,7.20
2022-11-19T01:13:00.572Z,7.07
2022-11-19T01:15:27.419Z,9.17
2022-11-19T01:17:54.259Z,7.53
2022-11-19T01:20:21.125Z,8.17
2022-11-19T01:22:48.024Z,5.90
2022-11-19T01:25:14.867Z,8.97
2022-11-19T01:27:41.671Z,9.27
2022-11-19T01:30:08.861Z,12.50
2022-11-19T01:32:35.689Z,13.03
2022-11-19T01:35:02.498Z,11.87
2022-11-19T01:37:29.271Z,10.83
2022-11-19T01:39:56.285Z,8.73
2022-11-19T01:42:48.483Z,7.57
2022-11-19T01:45:54.520Z,11.03
2022-11-19T01:48:24.854Z,8.40
2022-11-19T01:50:53.762Z,7.23
2022-11-19T01:53:21.243Z,8.00
2022-11-19T01:55:48.081Z,6.30
2022-11-19T01:58:17.177Z,11.20
2022-11-19T02:00:43.981Z,12.43
2022-11-19T02:03:11.902Z,8.53
2022-11-19T02:05:39.014Z,8.07
2022-11-19T02:08:07.352Z,6.33
2022-11-19T02:10:53.226Z,9.80
2022-11-19T02:13:23.610Z,8.83
2022-11-19T02:16:21.730Z,12.50
2022-11-19T02:18:55.388Z,9.23
2022-11-19T02:22:09.553Z,9.83
2022-11-19T02:24:54.377Z,7.87
2022-11-19T02:27:40.136Z,7.87
2022-11-19T02:30:08.135Z,7.53
2022-11-19T02:32:44.982Z,7.40
2022-11-19T02:35:17.376Z,5.60
2022-11-19T02:38:19.508Z,9.97
2022-11-19T02:40:57.164Z,7.50
2022-11-19T02:43:38.829Z,8.53
2022-11-19T02:46:13.452Z,7.57
2022-11-19T02:48:42.351Z,12.77
2022-11-19T02:51:09.245Z,10.07
2022-11-19T02:53:36.119Z,12.07
2022-11-19T02:56:13.627Z,9.07
2022-11-19T02:59:09.991Z,18.80
2022-11-19T03:01:57.011Z,9.87
2022-11-19T03:04:32.656Z,8.70
2022-11-19T03:07:10.705Z,8.83
2022-11-19T03:09:40.661Z,14.10
2022-11-19T03:12:25.373Z,12.30
2022-11-19T03:15:20.805Z,12.90
2022-11-19T03:17:47.609Z,9.53
2022-11-19T03:20:24.065Z,13.00
2022-11-19T03:23:05.106Z,7.87
2022-11-19T03:25:44.778Z,8.90
2022-11-19T03:28:16.913Z,6.40
2022-11-19T03:30:44.271Z,11.27
2022-11-19T03:33:41.245Z,10.70
2022-11-19T03:36:14.547Z,11.13
2022-11-19T03:38:43.433Z,10.33
2022-11-19T03:41:10.415Z,10.50
2022-11-19T03:43:39.087Z,11.17
2022-11-19T03:46:07.906Z,10.50
2022-11-19T03:48:34.702Z,5.90
2022-11-19T03:51:05.255Z,6.83
2022-11-19T03:53:32.067Z,8.97
2022-11-19T03:55:59.711Z,9.53
2022-11-19T03:58:26.889Z,11.33
2022-11-19T04:00:53.802Z,7.17
2022-11-19T04:03:20.688Z,11.93
2022-11-19T04:05:47.729Z,11.67
2022-11-19T04:08:14.498Z,4.20
2022-11-19T04:10:41.331Z,8.17
2022-11-19T04:13:08.128Z,3.73
2022-11-19T04:15:35.048Z,9.67
2022-11-19T04:18:01.886Z,9.97
2022-11-19T04:20:28.667Z,10.00
2022-11-19T04:22:55.444Z,7.20
2022-11-19T04:25:22.270Z,7.27
2022-11-19T04:27:49.080Z,6.90
2022-11-19T04:30:16.199Z,10.77
2022-11-19T04:32:43.138Z,5.37
2022-11-19T04:35:10.222Z,6.37
2022-11-19T04:37:37.076Z,6.77
2022-11-19T04:40:04.120Z,7.93
2022-11-19T04:42:30.924Z,9.50
2022-11-19T04:44:58.537Z,8.97
2022-11-19T04:47:25.296Z,6.60
2022-11-19T04:49:52.152Z,7.53
2022-11-19T04:52:18.914Z,6.37
2022-11-19T04:54:45.688Z,7.23
2022-11-19T04:57:12.524Z,11.87
2022-11-19T04:59:39.280Z,10.37
2022-11-19T05:02:06.051Z,7.10
2022-11-19T05:04:32.855Z,6.43
2022-11-19T05:06:59.642Z,9.77
2022-11-19T05:09:26.486Z,11.10
2022-11-19T05:11:53.284Z,13.57
2022-11-19T05:14:20.071Z,8.33
2022-11-19T05:16:46.901Z,12.80
2022-11-19T05:19:13.849Z,8.10
2022-11-19T05:21:40.605Z,6.40
2022-11-19T05:24:07.744Z,8.53
2022-11-19T05:26:34.501Z,8.90
2022-11-19T05:29:01.265Z,7.60
2022-11-19T05:31:28.071Z,9.13
2022-11-19T05:33:54.817Z,7.57
2022-11-19T05:36:21.624Z,7.50
2022-11-19T05:38:48.392Z,6.60
2022-11-19T05:41:15.211Z,9.70
2022-11-19T05:43:41.976Z,9.50
2022-11-19T05:46:08.784Z,9.13
2022-11-19T05:48:35.532Z,8.20
2022-11-19T05:51:02.289Z,9.57
2022-11-19T05:53:29.124Z,10.13
2022-11-19T05:55:55.879Z,5.77
2022-11-19T05:58:22.712Z,8.13
2022-11-19T06:00:53.301Z,11.57
2022-11-19T06:03:20.090Z,6.13
2022-11-19T06:05:46.899Z,7.47
2022-11-19T06:08:13.853Z,8.17
2022-11-19T06:10:40.662Z,8.27
2022-11-19T06:13:07.454Z,7.30
2022-11-19T06:15:34.311Z,9.93
2022-11-19T06:18:01.076Z,8.60
2022-11-19T06:20:27.835Z,11.50
2022-11-19T06:22:54.661Z,12.10
2022-11-19T06:25:21.547Z,9.83
2022-11-19T06:27:48.365Z,10.87
2022-11-19T06:30:16.188Z,8.87
2022-11-19T06:32:43.639Z,6.33
2022-11-19T06:35:10.669Z,9.57
2022-11-19T06:37:37.456Z,7.70
2022-11-19T06:40:04.741Z,6.20
2022-11-19T06:42:37.730Z,6.40
2022-11-19T06:45:14.393Z,6.93
2022-11-19T06:47:41.652Z,8.43
2022-11-19T06:50:09.252Z,10.53
2022-11-19T06:52:36.191Z,8.47
2022-11-19T06:55:02.975Z,6.37
2022-11-19T06:57:29.780Z,8.13
2022-11-19T06:59:57.010Z,9.87
2022-11-19T07:02:23.773Z,8.23
2022-11-19T07:04:50.645Z,7.27
2022-11-19T07:07:17.654Z,9.20
2022-11-19T07:09:44.457Z,7.67
2022-11-19T07:12:11.202Z,5.33
2022-11-19T07:14:38.032Z,5.53
2022-11-19T07:17:05.340Z,6.27
2022-11-19T07:19:32.229Z,9.53
2022-11-19T07:21:59.084Z,7.07
2022-11-19T07:24:26.749Z,6.47
2022-11-19T07:26:53.594Z,7.03
2022-11-19T07:29:21.947Z,8.90
2022-11-19T07:31:50.656Z,6.90
2022-11-19T07:34:17.816Z,8.57
2022-11-19T07:36:45.299Z,10.47
2022-11-19T07:39:12.289Z,17.93
2022-11-19T07:41:57.675Z,9.27
2022-11-19T07:44:24.440Z,10.53
2022-11-19T07:46:51.210Z,12.47
2022-11-19T07:49:19.759Z,10.67
2022-11-19T07:51:46.697Z,11.60
2022-11-19T07:54:14.241Z,11.73
2022-11-19T07:56:41.120Z,10.93
2022-11-19T07:59:07.963Z,11.67
2022-11-19T08:01:34.902Z,14.77
2022-11-19T08:04:02.484Z,17.60
2022-11-19T08:06:30.022Z,13.63
2022-11-19T08:08:57.099Z,11.60
2022-11-19T08:11:24.264Z,12.80
2022-11-19T08:13:51.673Z,12.37
2022-11-19T08:16:38.386Z,13.97
2022-11-19T08:19:12.472Z,11.43
2022-11-19T08:21:46.506Z,11.77
2022-11-19T08:24:13.794Z,12.17
2022-11-19T08:26:40.970Z,11.17
2022-11-19T08:29:13.067Z,10.30
2022-11-19T08:31:43.335Z,9.90
2022-11-19T08:34:10.099Z,12.83
2022-11-19T08:36:36.958Z,11.63
2022-11-19T08:39:04.262Z,10.53
2022-11-19T08:41:49.908Z,9.07
2022-11-19T08:44:18.105Z,8.80
2022-11-19T08:46:45.109Z,10.03
2022-11-19T08:49:12.174Z,10.70
2022-11-19T08:51:39.129Z,9.00
2022-11-19T08:54:06.039Z,8.33
2022-11-19T08:56:33.335Z,10.07
2022-11-19T08:59:03.005Z,7.73
2022-11-19T09:01:30.450Z,7.93
2022-11-19T09:03:57.374Z,9.20
2022-11-19T09:06:24.253Z,8.70
2022-11-19T09:08:51.040Z,10.40
2022-11-19T09:11:18.677Z,10.20
2022-11-19T09:13:45.551Z,10.13
2022-11-19T09:16:12.449Z,9.93
2022-11-19T09:18:40.187Z,11.50
2022-11-19T09:21:07.868Z,10.53
2022-11-19T09:23:34.661Z,11.33
2022-11-19T09:26:07.165Z,14.00
2022-11-19T09:28:34.033Z,14.23
2022-11-19T09:31:06.240Z,17.53
2022-11-19T09:33:34.324Z,20.53
2022-11-19T09:36:01.301Z,18.90
2022-11-19T09:38:28.215Z,23.90
2022-11-19T09:40:56.133Z,21.00
2022-11-19T09:43:44.149Z,23.77
2022-11-19T09:46:17.665Z,24.33
2022-11-19T09:48:45.758Z,27.63
2022-11-19T09:51:17.199Z,28.07
2022-11-19T09:53:55.362Z,29.43
2022-11-19T09:56:27.980Z,28.33
2022-11-19T09:58:54.761Z,33.17
2022-11-19T10:01:21.648Z,33.90
2022-11-19T10:03:53.487Z,28.40
2022-11-19T10:06:30.815Z,29.23
2022-11-19T10:09:03.645Z,31.13
2022-11-19T10:11:48.348Z,32.20
2022-11-19T10:14:56.569Z,35.63
2022-11-19T10:17:43.776Z,34.30
2022-11-19T10:20:30.511Z,33.17
2022-11-19T10:23:05.833Z,36.40
2022-11-19T10:25:35.821Z,36.50
2022-11-19T10:28:11.136Z,34.70
2022-11-19T10:30:37.930Z,34.97
2022-11-19T10:33:29.648Z,37.03
2022-11-19T10:36:02.316Z,36.53
2022-11-19T10:38:53.456Z,37.57
2022-11-19T10:41:39.221Z,42.20
2022-11-19T10:44:43.299Z,41.30
2022-11-19T10:47:13.616Z,41.03
2022-11-19T10:49:41.823Z,39.97
2022-11-19T10:52:35.544Z,47.73
2022-11-19T10:55:31.453Z,44.77
2022-11-19T10:58:38.218Z,45.00
2022-11-19T11:01:11.984Z,48.10
2022-11-19T11:03:46.768Z,48.43
2022-11-19T11:06:13.797Z,47.47
2022-11-19T11:08:54.035Z,45.30
2022-11-19T11:11:51.305Z,46.30
2022-11-19T11:14:38.294Z,47.67
2022-11-19T11:17:18.334Z,52.97
2022-11-19T11:19:57.237Z,48.57
2022-11-19T11:22:25.428Z,48.73
2022-11-19T11:24:52.173Z,53.77
2022-11-19T11:27:29.024Z,56.63
2022-11-19T11:30:25.253Z,49.73
2022-11-19T11:32:52.114Z,51.47
2022-11-19T11:35:33.395Z,45.30
2022-11-19T11:38:01.628Z,52.23
2022-11-19T11:40:28.473Z,53.63
2022-11-19T11:42:55.256Z,57.60
2022-11-19T11:45:28.293Z,58.83
2022-11-19T11:47:55.055Z,55.73
2022-11-19T11:50:26.023Z,55.73
2022-11-19T11:52:53.757Z,53.13
2022-11-19T11:55:23.288Z,50.80
2022-11-19T11:58:03.827Z,51.27
2022-11-19T12:00:42.811Z,54.40
2022-11-19T12:03:13.889Z,58.30
2022-11-19T12:06:08.521Z,56.40
2022-11-19T12:08:54.008Z,59.50
2022-11-19T12:11:59.110Z,56.60
2022-11-19T12:14:52.125Z,57.97
2022-11-19T12:17:28.110Z,64.37
2022-11-19T12:20:03.873Z,61.20
2022-11-19T12:22:30.689Z,60.50
2022-11-19T12:25:08.609Z,61.50
2022-11-19T12:27:35.433Z,63.47
2022-11-19T12:30:05.319Z,60.90
2022-11-19T12:32:44.608Z,59.97
2022-11-19T12:35:20.293Z,59.47
2022-11-19T12:38:38.558Z,63.80
2022-11-19T12:41:22.938Z,58.57
2022-11-19T12:43:59.441Z,63.70
2022-11-19T12:46:51.698Z,65.73
2022-11-19T12:49:28.653Z,58.40
2022-11-19T12:52:09.961Z,64.20
2022-11-19T12:54:52.588Z,63.83
2022-11-19T12:57:41.073Z,69.27
2022-11-19T13:00:26.500Z,62.53
2022-11-19T13:03:05.534Z,69.67
2022-11-19T13:05:38.873Z,68.87
2022-11-19T13:08:12.400Z,66.83
2022-11-19T13:10:40.823Z,64.20
2022-11-19T13:13:19.866Z,63.13
2022-11-19T13:16:00.535Z,66.83
2022-11-19T13:18:34.170Z,61.23
2022-11-19T13:21:05.912Z,69.10
2022-11-19T13:23:45.981Z,64.00
2022-11-19T13:26:30.210Z,71.37
2022-11-19T13:29:15.827Z,61.53
2022-11-19T13:31:48.775Z,63.00
2022-11-19T13:34:23.129Z,63.10
2022-11-19T13:37:01.936Z,62.93
2022-11-19T13:39:57.424Z,61.47
2022-11-19T13:42:54.623Z,61.93
2022-11-19T13:45:35.595Z,67.03
2022-11-19T13:48:16.985Z,63.63
2022-11-19T13:50:44.169Z,63.90
2022-11-19T13:53:15.090Z,64.03
2022-11-19T13:55:42.220Z,64.47
2022-11-19T13:58:18.558Z,70.63
2022-11-19T14:01:08.553Z,71.70
2022-11-19T14:03:57.743Z,72.07
2022-11-19T14:06:45.815Z,68.00
2022-11-19T14:09:32.529Z,69.93
2022-11-19T14:12:14.254Z,65.90
2022-11-19T14:15:09.136Z,66.97
2022-11-19T14:18:13.548Z,71.40
2022-11-19T14:21:10.876Z,67.17
2022-11-19T14:24:08.601Z,69.60
2022-11-19T14:26:52.301Z,72.83
2022-11-19T14:29:25.187Z,64.13
2022-11-19T14:32:02.783Z,72.00
2022-11-19T14:35:01.496Z,63.80
2022-11-19T14:37:37.466Z,74.23
2022-11-19T14:40:23.376Z,69.80
2022-11-19T14:43:31.830Z,69.20
2022-11-19T14:46:04.614Z,80.47
2022-11-19T14:48:41.055Z,67.47
2022-11-19T14:51:12.392Z,74.50
2022-11-19T14:53:50.498Z,76.23
2022-11-19T14:56:17.822Z,80.00
2022-11-19T14:58:58.072Z,74.60
2022-11-19T15:01:27.923Z,75.03
2022-11-19T15:04:05.908Z,81.97
2022-11-19T15:06:37.728Z,85.73
2022-11-19T15:09:10.821Z,78.93
2022-11-19T15:11:56.179Z,86.37
2022-11-19T15:14:28.840Z,78.30
2022-11-19T15:16:59.307Z,84.67
2022-11-19T15:19:37.933Z,82.40
2022-11-19T15:22:26.314Z,81.47
2022-11-19T15:24:53.444Z,77.07
2022-11-19T15:27:41.390Z,82.17
2022-11-19T15:30:31.687Z,89.70
2022-11-19T15:33:24.378Z,75.60
2022-11-19T15:36:15.705Z,76.63
2022-11-19T15:38:48.149Z,84.33
2022-11-19T15:41:17.255Z,81.27
2022-11-19T15:43:54.625Z,73.43
2022-11-19T15:46:34.922Z,74.50
2022-11-19T15:49:29.110Z,77.00
2022-11-19T15:51:55.870Z,74.13
2022-11-19T15:54:30.048Z,73.17
2022-11-19T15:57:15.213Z,72.10
2022-11-19T15:59:42.113Z,75.87
2022-11-19T16:02:36.727Z,78.63
2022-11-19T16:05:04.171Z,86.23
2022-11-19T16:07:31.039Z,76.43
2022-11-19T16:09:58.098Z,74.33
2022-11-19T16:12:45.025Z,79.83
2022-11-19T16:15:44.438Z,81.20
2022-11-19T16:18:15.295Z,86.47
2022-11-19T16:20:46.730Z,79.90
2022-11-19T16:23:21.715Z,75.67
2022-11-19T16:25:48.836Z,83.50
2022-11-19T16:28:26.240Z,89.60
2022-11-19T16:31:01.246Z,85.77
2022-11-19T16:33:29.527Z,90.77
2022-11-19T16:36:17.244Z,80.90
2022-11-19T16:38:46.541Z,79.53
2022-11-19T16:41:32.212Z,84.60
2022-11-19T16:43:59.083Z,84.17
2022-11-19T16:46:28.562Z,75.83
2022-11-19T16:48:57.016Z,75.47
2022-11-19T16:51:53.033Z,75.53
2022-11-19T16:54:48.714Z,79.57
2022-11-19T16:57:20.221Z,69.53
2022-11-19T16:59:57.772Z,74.00
2022-11-19T17:02:44.983Z,77.63
2022-11-19T17:05:14.486Z,81.37
2022-11-19T17:07:42.666Z,74.83
2022-11-19T17:10:12.553Z,71.07
2022-11-19T17:12:56.487Z,78.87
2022-11-19T17:15:38.665Z,74.00
2022-11-19T17:18:17.304Z,77.00
2022-11-19T17:20:44.077Z,71.43
2022-11-19T17:23:21.627Z,76.03
2022-11-19T17:25:52.342Z,75.87
2022-11-19T17:28:35.989Z,66.13
2022-11-19T17:31:16.983Z,65.90
2022-11-19T17:33:54.727Z,68.33
2022-11-19T17:36:22.328Z,71.33
2022-11-19T17:38:49.395Z,77.20
2022-11-19T17:41:38.081Z,66.80
2022-11-19T17:44:24.321Z,65.10
2022-11-19T17:46:51.087Z,83.27
2022-11-19T17:49:17.845Z,77.80
2022-11-19T17:51:44.670Z,68.57
2022-11-19T17:54:11.757Z,70.90
2022-11-19T17:56:38.570Z,74.13
2022-11-19T17:59:05.526Z,72.47
2022-11-19T18:01:32.372Z,77.17
2022-11-19T18:03:59.272Z,71.57
2022-11-19T18:06:26.100Z,77.53
2022-11-19T18:08:52.889Z,76.93
2022-11-19T18:11:21.688Z,69.80
2022-11-19T18:13:49.465Z,76.23
2022-11-19T18:16:24.392Z,78.10
2022-11-19T18:18:51.306Z,70.67
2022-11-19T18:21:20.584Z,71.10
2022-11-19T18:23:48.001Z,71.83
2022-11-19T18:26:17.401Z,67.43
2022-11-19T18:28:48.585Z,72.00
2022-11-19T18:31:18.135Z,74.37
2022-11-19T18:33:47.832Z,67.87
2022-11-19T18:36:15.300Z,73.77
2022-11-19T18:38:42.401Z,74.30
2022-11-19T18:41:12.725Z,77.00
2022-11-19T18:43:58.513Z,79.00
2022-11-19T18:46:25.564Z,71.40
2022-11-19T18:48:53.643Z,73.97
2022-11-19T18:51:20.873Z,81.27
2022-11-19T18:53:47.843Z,65.63
2022-11-19T18:56:18.089Z,67.10
2022-11-19T18:58:44.970Z,69.47
2022-11-19T19:01:13.066Z,70.93
2022-11-19T19:03:40.000Z,67.33
2022-11-19T19:06:07.570Z,65.83
2022-11-19T19:08:34.460Z,62.60
2022-11-19T19:11:21.818Z,63.00
2022-11-19T19:13:48.630Z,59.13
2022-11-19T19:16:15.435Z,62.07
2022-11-19T19:18:42.288Z,58.27
2022-11-19T19:21:21.931Z,61.33
2022-11-19T19:23:49.036Z,66.67
2022-11-19T19:26:16.907Z,64.37
2022-11-19T19:28:43.945Z,62.33
2022-11-19T19:31:16.425Z,59.07
2022-11-19T19:33:46.288Z,59.90
2022-11-19T19:36:13.312Z,57.73
2022-11-19T19:38:41.301Z,65.47
2022-11-19T19:41:13.077Z,55.87
2022-11-19T19:43:40.112Z,65.07
2022-11-19T19:46:13.509Z,57.70
2022-11-19T19:48:40.527Z,62.60
2022-11-19T19:51:07.300Z,59.80
2022-11-19T19:53:34.393Z,60.90
2022-11-19T19:56:10.113Z,57.70
2022-11-19T19:58:38.258Z,55.77
2022-11-19T20:01:08.714Z,58.83
2022-11-19T20:03:36.000Z,66.00
2022-11-19T20:06:03.583Z,61.83
2022-11-19T20:08:30.521Z,60.57
2022-11-19T20:11:01.891Z,57.87
2022-11-19T20:13:28.814Z,52.93
2022-11-19T20:15:56.609Z,57.10
2022-11-19T20:18:24.388Z,57.40
2022-11-19T20:20:51.435Z,58.73
2022-11-19T20:23:18.460Z,56.13
2022-11-19T20:25:45.330Z,59.77
2022-11-19T20:28:12.206Z,57.13
2022-11-19T20:30:39.063Z,52.47
2022-11-19T20:33:05.934Z,55.70
2022-11-19T20:35:32.851Z,55.37
2022-11-19T20:38:03.423Z,54.97
2022-11-19T20:40:30.613Z,55.40
2022-11-19T20:43:15.956Z,60.50
2022-11-19T20:45:42.802Z,52.90
2022-11-19T20:48:09.649Z,47.40
2022-11-19T20:50:36.565Z,48.87
2022-11-19T20:53:03.512Z,51.70
2022-11-19T20:55:30.346Z,46.17
2022-11-19T20:57:57.253Z,43.00
2022-11-19T21:00:24.266Z,44.13
2022-11-19T21:02:51.264Z,43.03
2022-11-19T21:05:18.167Z,45.22
2022-11-19T21:07:45.183Z,43.57
2022-11-19T21:10:12.223Z,41.67
2022-11-19T21:12:59.045Z,44.53
2022-11-19T21:15:25.944Z,47.57
2022-11-19T21:17:52.775Z,42.40
2022-11-19T21:20:19.667Z,38.60
2022-11-19T21:22:48.283Z,36.87
2022-11-19T21:25:15.204Z,36.50
2022-11-19T21:27:42.467Z,34.67
2022-11-19T21:30:11.312Z,36.77
2022-11-19T21:32:38.265Z,38.37
2022-11-19T21:35:05.552Z,40.83
2022-11-19T21:37:32.506Z,42.10
2022-11-19T21:39:59.426Z,37.10
2022-11-19T21:42:26.271Z,38.00
2022-11-19T21:44:53.628Z,43.07
2022-11-19T21:47:20.575Z,43.50
2022-11-19T21:49:47.469Z,42.97
2022-11-19T21:52:14.374Z,42.27
2022-11-19T21:54:41.282Z,47.67
2022-11-19T21:57:08.113Z,48.20
2022-11-19T21:59:35.958Z,49.23
2022-11-19T22:02:02.875Z,49.57
2022-11-19T22:04:30.770Z,44.07
2022-11-19T22:06:57.800Z,42.93
2022-11-19T22:09:26.404Z,50.37
2022-11-19T22:11:53.325Z,39.67
2022-11-19T22:14:20.227Z,43.50
2022-11-19T22:16:47.115Z,42.93
2022-11-19T22:19:14.179Z,41.87
2022-11-19T22:21:41.010Z,44.83
2022-11-19T22:24:07.883Z,41.27
2022-11-19T22:26:34.699Z,48.17
2022-11-19T22:29:01.498Z,43.67
2022-11-19T22:31:28.377Z,45.33
2022-11-19T22:33:55.630Z,47.23
2022-11-19T22:36:22.712Z,47.20
2022-11-19T22:38:50.053Z,46.97
2022-11-19T22:41:18.241Z,47.80
2022-11-19T22:43:45.038Z,48.50
2022-11-19T22:46:12.909Z,46.23
2022-11-19T22:48:39.914Z,48.77
2022-11-19T22:51:12.722Z,50.23
2022-11-19T22:53:39.642Z,53.10
2022-11-19T22:56:07.872Z,45.77
2022-11-19T22:58:34.922Z,44.87
2022-11-19T23:01:02.015Z,47.33
2022-11-19T23:03:29.111Z,45.47
2022-11-19T23:05:57.213Z,44.63
2022-11-19T23:08:24.023Z,44.90
2022-11-19T23:11:00.533Z,44.83
2022-11-19T23:13:34.215Z,41.97
2022-11-19T23:16:11.265Z,42.50
2022-11-19T23:18:53.264Z,41.27
2022-11-19T23:21:24.588Z,46.57
2022-11-19T23:23:51.604Z,52.30
2022-11-19T23:26:20.049Z,47.80
2022-11-19T23:28:46.973Z,44.83
2022-11-19T23:31:18.677Z,52.90
2022-11-19T23:33:45.811Z,45.97
2022-11-19T23:36:14.414Z,49.67
2022-11-19T23:38:41.347Z,51.33
2022-11-19T23:41:09.681Z,53.63
2022-11-19T23:43:36.535Z,53.43
2022-11-19T23:46:07.545Z,58.50
2022-11-19T23:48:34.660Z,55.57
2022-11-19T23:51:15.419Z,55.77
2022-11-19T23:53:42.257Z,56.77
2022-11-19T23:56:09.470Z,62.93
2022-11-19T23:58:36.349Z,59.83
